Ambleside, United Kingdom
Current Conditions -  °F | °C
As of 1:50 PM on Wednesday 26 Nov 2014 (Local Time) from EGNC Reporting Station
Light Rain Light Rain  
Wind Chill: 41°   Ceiling: 2500
Heat Index: 45°   Visibility: 6mi
Dew Point: 45°   Wind: 6mph
Humidity: 100%   Direction: 70°ENE
Pressure: 29.88"   Gusts: NA
Location:  54.43°N, 2.96°W
Report Text: EGNC 261350Z 07005KT 9000 -RA FEW007 SCT012 BKN025 07/07 Q1012
Loading
Personal Weather Stations






























Interactive Weather Map New forecast layout! Learn more

10-Day Weather Forecast

Advertisements
Track Severe Weather on mobile